Time;durP1;ratioP1;P1;durP2;ratioP2;P2;SDS_P1;SDS_P2;PMS_P1;PMS_P2;Temp;Humidity;BMP_temperature;BMP_pressure;BME280_temperature;BME280_humidity;BME280_pressure;Samples;Min_cycle;Max_cycle;Signal;HPM_P1;HPM_P2
2023/11/30 00:00:42;;;;;;;20.20;6.50;;;-2.70;99.90;;;;;;4994062;28;20027;-79
2023/11/30 00:03:07;;;;;;;11.00;6.03;;;-2.70;99.90;;;;;;4979079;28;20073;-80
2023/11/30 00:05:33;;;;;;;14.00;6.03;;;-2.70;99.90;;;;;;4979536;28;20030;-80
2023/11/30 00:07:59;;;;;;;13.95;6.22;;;-2.70;99.90;;;;;;4979194;28;20492;-80
2023/11/30 00:10:24;;;;;;;11.63;5.78;;;-2.60;99.90;;;;;;4979329;28;20038;-80
2023/11/30 00:12:50;;;;;;;11.23;6.75;;;-2.60;99.90;;;;;;4996656;28;20065;-80
2023/11/30 00:15:15;;;;;;;15.20;6.63;;;-2.50;99.90;;;;;;4978886;28;20064;-79
2023/11/30 00:17:41;;;;;;;11.82;6.40;;;-2.50;99.90;;;;;;4979336;28;20082;-79
2023/11/30 00:20:07;;;;;;;14.60;7.07;;;-2.50;99.90;;;;;;4978929;28;20031;-79
2023/11/30 00:22:32;;;;;;;16.13;7.25;;;-2.40;99.90;;;;;;4978709;28;20026;-80
2023/11/30 00:24:58;;;;;;;8.77;6.53;;;-2.40;99.90;;;;;;4996196;28;20029;-79
2023/11/30 00:27:24;;;;;;;14.02;6.10;;;-1.30;99.90;;;;;;4979158;28;20476;-79
2023/11/30 00:29:49;;;;;;;13.95;6.82;;;-2.40;99.90;;;;;;4981613;28;20488;-79
2023/11/30 00:32:15;;;;;;;16.40;7.25;;;-2.40;99.90;;;;;;4999991;28;20030;-80
2023/11/30 00:34:40;;;;;;;11.50;5.75;;;-2.40;99.90;;;;;;4982442;28;20041;-79
2023/11/30 00:37:06;;;;;;;17.90;6.70;;;-2.40;99.90;;;;;;4982497;28;20062;-79
2023/11/30 00:39:32;;;;;;;13.73;6.45;;;-2.30;99.90;;;;;;5000422;28;20109;-80
2023/11/30 00:41:58;;;;;;;15.13;6.60;;;-2.40;99.90;;;;;;4980235;28;20058;-79
2023/11/30 00:44:23;;;;;;;12.02;6.63;;;-2.30;99.90;;;;;;4980653;28;20023;-79
2023/11/30 00:46:49;;;;;;;14.98;6.40;;;-2.40;99.90;;;;;;4980081;28;20427;-79
2023/11/30 00:49:14;;;;;;;18.95;7.40;;;-2.40;99.90;;;;;;4980313;28;20030;-79
2023/11/30 00:51:40;;;;;;;16.38;7.15;;;-2.40;99.90;;;;;;4980341;28;20488;-79
2023/11/30 00:54:06;;;;;;;11.52;6.38;;;-2.40;99.90;;;;;;4982151;28;20022;-80
2023/11/30 00:56:31;;;;;;;15.00;6.85;;;-2.50;99.90;;;;;;4981807;28;20472;-79
2023/11/30 00:58:57;;;;;;;14.35;5.65;;;-2.50;99.90;;;;;;4982052;28;20027;-80
2023/11/30 01:01:22;;;;;;;11.65;7.05;;;-2.40;99.90;;;;;;4980711;28;20439;-81
2023/11/30 01:03:48;;;;;;;9.10;5.47;;;-2.40;99.90;;;;;;4997931;28;20111;-79
2023/11/30 01:06:13;;;;;;;11.50;6.15;;;-2.40;99.90;;;;;;4997666;28;20018;-79
2023/11/30 01:08:39;;;;;;;15.65;6.75;;;-2.40;99.90;;;;;;4980268;28;20023;-79
2023/11/30 01:11:06;;;;;;;11.48;6.50;;;-2.40;99.90;;;;;;4980143;28;20034;-79
2023/11/30 01:13:32;;;;;;;14.35;5.65;;;-2.30;99.90;;;;;;4979710;28;20495;-79
2023/11/30 01:15:57;;;;;;;11.52;7.07;;;-2.30;99.90;;;;;;4997255;28;20034;-79
2023/11/30 01:18:23;;;;;;;13.07;6.35;;;-2.30;99.90;;;;;;4997352;28;20038;-79
2023/11/30 01:20:48;;;;;;;17.60;5.70;;;-2.20;99.90;;;;;;4979233;28;20488;-79
2023/11/30 01:23:14;;;;;;;13.10;6.93;;;-2.30;99.90;;;;;;4996786;28;20023;-79
2023/11/30 01:25:39;;;;;;;12.73;6.70;;;-2.20;99.90;;;;;;4979335;28;20026;-79
2023/11/30 01:28:05;;;;;;;13.68;6.22;;;-2.20;99.90;;;;;;4979613;28;20056;-79
2023/11/30 01:30:31;;;;;;;16.90;7.13;;;-2.20;99.90;;;;;;4996816;28;20034;-79
2023/11/30 01:32:56;;;;;;;10.60;6.30;;;-2.20;99.90;;;;;;4979373;28;20026;-79
2023/11/30 01:35:22;;;;;;;14.77;6.93;;;-2.20;99.90;;;;;;4996521;28;20023;-79
2023/11/30 01:37:47;;;;;;;10.55;5.47;;;-2.10;99.90;;;;;;4979407;28;20034;-79
2023/11/30 01:40:13;;;;;;;11.15;6.05;;;-2.10;99.90;;;;;;4978685;28;20033;-79
2023/11/30 01:42:39;;;;;;;14.30;7.10;;;-1.10;99.90;;;;;;4978884;28;20534;-78
2023/11/30 01:45:05;;;;;;;13.68;7.97;;;-2.00;99.90;;;;;;4978967;28;20023;-80
2023/11/30 01:47:31;;;;;;;13.25;7.15;;;-2.00;99.90;;;;;;4978633;28;20072;-79
2023/11/30 01:49:58;;;;;;;11.77;6.45;;;-2.00;99.90;;;;;;4978937;28;20041;-79
2023/11/30 01:52:24;;;;;;;15.00;7.13;;;-2.00;99.90;;;;;;4978862;28;20053;-79
2023/11/30 01:54:50;;;;;;;13.05;7.57;;;-1.90;99.90;;;;;;4996597;28;20488;-79
2023/11/30 01:57:15;;;;;;;12.88;6.28;;;-1.90;99.90;;;;;;4978652;28;20031;-79
2023/11/30 01:59:43;;;;;;;14.32;6.72;;;-1.90;99.90;;;;;;4978709;28;20030;-80
2023/11/30 02:02:09;;;;;;;14.73;7.78;;;-1.90;99.90;;;;;;4978560;28;20053;-79
2023/11/30 02:04:37;;;;;;;13.70;7.47;;;-1.80;99.90;;;;;;4978674;28;20492;-80
2023/11/30 02:07:03;;;;;;;13.50;6.15;;;-1.80;99.90;;;;;;4978277;28;20022;-79
2023/11/30 02:09:28;;;;;;;16.60;6.90;;;-1.80;99.90;;;;;;4996015;28;20058;-79
2023/11/30 02:11:54;;;;;;;13.68;7.05;;;-1.80;99.90;;;;;;4978530;28;20519;-79
2023/11/30 02:14:20;;;;;;;11.20;7.53;;;-2.00;99.90;;;;;;4996133;28;20033;-79
2023/11/30 02:16:45;;;;;;;13.80;7.05;;;-1.70;99.90;;;;;;4978262;28;20030;-80
2023/11/30 02:19:11;;;;;;;13.85;6.95;;;-1.70;99.90;;;;;;4978376;28;20053;-79
2023/11/30 02:21:36;;;;;;;12.95;6.47;;;-1.70;99.90;;;;;;4978580;28;20050;-79
2023/11/30 02:24:02;;;;;;;13.52;6.80;;;-1.70;99.90;;;;;;4978519;28;20026;-79
2023/11/30 02:26:28;;;;;;;12.55;7.47;;;-1.70;99.90;;;;;;4978164;28;20522;-79
2023/11/30 02:28:53;;;;;;;12.85;6.90;;;-1.70;99.90;;;;;;4996038;28;20109;-79
2023/11/30 02:31:19;;;;;;;12.57;7.35;;;-1.60;99.90;;;;;;4995632;28;20038;-79
2023/11/30 02:33:45;;;;;;;14.40;7.03;;;-1.70;99.90;;;;;;4995431;28;20042;-79
2023/11/30 02:36:12;;;;;;;12.32;6.93;;;-1.70;99.90;;;;;;4977891;28;20052;-79
2023/11/30 02:38:38;;;;;;;11.88;6.53;;;-1.70;99.90;;;;;;4978041;28;20113;-79
2023/11/30 02:41:03;;;;;;;15.63;7.10;;;-1.60;99.90;;;;;;4977945;28;20142;-80
2023/11/30 02:43:29;;;;;;;11.50;6.82;;;-1.60;99.90;;;;;;4977730;28;20484;-79
2023/11/30 02:45:55;;;;;;;15.23;7.05;;;-1.60;99.90;;;;;;4977549;28;20023;-79
2023/11/30 02:48:21;;;;;;;10.82;6.57;;;-1.60;99.90;;;;;;4977742;28;20033;-78
2023/11/30 02:50:46;;;;;;;11.18;5.20;;;-1.60;99.90;;;;;;4977142;28;20432;-79
2023/11/30 02:53:12;;;;;;;14.27;6.78;;;-1.50;99.90;;;;;;4977854;28;20061;-79
2023/11/30 02:55:37;;;;;;;12.05;6.68;;;-1.50;99.90;;;;;;4977700;28;20042;-79
2023/11/30 02:58:03;;;;;;;9.90;6.15;;;-1.50;99.90;;;;;;4977703;28;20030;-79
2023/11/30 03:00:29;;;;;;;17.48;6.93;;;-1.50;99.90;;;;;;4977648;28;20683;-79
2023/11/30 03:02:54;;;;;;;11.30;6.68;;;-1.60;99.90;;;;;;4977389;28;20041;-79
2023/11/30 03:05:20;;;;;;;12.00;7.00;;;-1.60;99.90;;;;;;4977776;28;20026;-80
2023/11/30 03:07:45;;;;;;;14.63;8.07;;;-1.50;99.90;;;;;;4977615;28;20023;-80
2023/11/30 03:10:11;;;;;;;9.63;6.43;;;-1.60;99.90;;;;;;4977225;28;20062;-80
2023/11/30 03:12:37;;;;;;;13.52;7.32;;;-0.80;99.90;;;;;;4977301;28;20030;-79
2023/11/30 03:15:03;;;;;;;13.07;6.88;;;-1.50;99.90;;;;;;4994762;28;20097;-82
2023/11/30 03:17:28;;;;;;;13.52;7.50;;;-1.60;99.90;;;;;;4976762;28;20410;-79
2023/11/30 03:19:54;;;;;;;13.63;6.82;;;-1.60;99.90;;;;;;4994464;28;20034;-79
2023/11/30 03:22:19;;;;;;;15.10;7.30;;;-1.70;99.90;;;;;;4976843;28;20033;-79
2023/11/30 03:24:45;;;;;;;13.60;7.20;;;-1.60;99.90;;;;;;4977722;28;20084;-80
2023/11/30 03:27:11;;;;;;;12.25;6.95;;;-1.60;99.90;;;;;;4977005;28;20033;-80
2023/11/30 03:29:38;;;;;;;11.82;6.47;;;-1.60;99.90;;;;;;4977063;28;20113;-79
2023/11/30 03:32:04;;;;;;;11.02;7.07;;;-1.60;99.90;;;;;;4994190;28;20497;-79
2023/11/30 03:34:29;;;;;;;14.32;6.90;;;-1.60;99.90;;;;;;4994528;28;20030;-79
2023/11/30 03:36:55;;;;;;;13.48;7.15;;;-1.60;99.90;;;;;;4976879;28;20089;-79
2023/11/30 03:39:20;;;;;;;17.98;7.00;;;-1.50;99.90;;;;;;4976843;28;20031;-79
2023/11/30 03:41:46;;;;;;;11.48;6.40;;;-1.50;99.90;;;;;;4976836;28;20026;-79
2023/11/30 03:44:11;;;;;;;15.00;7.45;;;-1.50;99.90;;;;;;4977113;28;20022;-79
2023/11/30 03:46:37;;;;;;;13.20;7.43;;;-1.60;99.90;;;;;;4976746;28;20018;-79
2023/11/30 03:49:03;;;;;;;10.15;6.05;;;-1.70;99.90;;;;;;4977006;28;20022;-79
2023/11/30 03:51:28;;;;;;;14.90;6.13;;;-1.80;99.90;;;;;;4976567;28;20030;-80
2023/11/30 03:53:54;;;;;;;12.63;6.72;;;-1.80;99.90;;;;;;4993995;28;20038;-79
2023/11/30 03:56:19;;;;;;;12.60;6.15;;;-1.70;99.90;;;;;;4976753;28;20030;-79
2023/11/30 03:58:45;;;;;;;17.70;7.45;;;-1.80;99.90;;;;;;4976908;28;20036;-79
2023/11/30 04:01:11;;;;;;;15.20;7.18;;;-1.80;99.90;;;;;;4976292;28;20026;-79
2023/11/30 04:03:36;;;;;;;15.15;7.80;;;-1.80;99.90;;;;;;4976856;28;20370;-79
2023/11/30 04:06:03;;;;;;;10.60;6.47;;;-1.80;99.90;;;;;;4976832;28;20117;-79
2023/11/30 04:08:28;;;;;;;13.82;7.13;;;-1.80;99.90;;;;;;4993987;28;20018;-79
2023/11/30 04:10:54;;;;;;;11.70;7.22;;;-1.90;99.90;;;;;;4976538;28;20081;-80
2023/11/30 04:13:20;;;;;;;14.20;7.47;;;-1.90;99.90;;;;;;4976780;28;20065;-79
2023/11/30 04:15:46;;;;;;;12.63;6.43;;;-2.00;99.90;;;;;;4976347;28;20033;-79
2023/11/30 04:18:11;;;;;;;11.43;6.63;;;-1.90;99.90;;;;;;4993941;28;20030;-79
2023/11/30 04:20:37;;;;;;;12.00;7.20;;;-1.90;99.90;;;;;;4976765;28;20022;-79
2023/11/30 04:23:03;;;;;;;11.85;6.28;;;-1.90;99.90;;;;;;4976663;28;20054;-79
2023/11/30 04:25:29;;;;;;;12.48;6.93;;;-2.00;99.90;;;;;;4975957;28;20400;-81
2023/11/30 04:27:54;;;;;;;15.10;6.95;;;-2.00;99.90;;;;;;4976328;28;20019;-80
2023/11/30 04:30:20;;;;;;;16.13;7.25;;;-2.00;99.90;;;;;;4993951;28;20037;-79
2023/11/30 04:32:46;;;;;;;14.05;6.40;;;-1.90;99.90;;;;;;4976387;28;20081;-79
2023/11/30 04:35:11;;;;;;;10.38;6.50;;;-1.90;99.90;;;;;;4976299;28;20500;-79
2023/11/30 04:37:37;;;;;;;15.18;7.55;;;-2.00;99.90;;;;;;4976329;28;20156;-79
2023/11/30 04:40:03;;;;;;;14.43;7.22;;;-1.90;99.90;;;;;;4976210;28;20026;-79
2023/11/30 04:42:29;;;;;;;11.32;7.13;;;-1.90;99.90;;;;;;4976077;28;20031;-79
2023/11/30 04:44:54;;;;;;;13.00;6.85;;;-1.90;99.90;;;;;;4976693;28;20463;-79
2023/11/30 04:47:20;;;;;;;14.93;7.80;;;-1.90;99.90;;;;;;4993654;28;20029;-79
2023/11/30 04:49:45;;;;;;;14.68;8.07;;;-1.80;99.90;;;;;;4993816;28;20022;-79
2023/11/30 04:52:11;;;;;;;18.55;8.00;;;-2.10;99.90;;;;;;4993624;28;20031;-82
2023/11/30 04:54:37;;;;;;;13.77;7.72;;;-1.80;99.90;;;;;;4993459;28;20085;-79
2023/11/30 04:57:02;;;;;;;14.43;7.40;;;-1.70;99.90;;;;;;4993223;28;20296;-79
2023/11/30 04:59:28;;;;;;;14.02;6.95;;;-1.80;99.90;;;;;;4975780;28;20034;-81
2023/11/30 05:01:54;;;;;;;11.23;6.70;;;-1.70;99.90;;;;;;4976043;28;20077;-79
2023/11/30 05:04:19;;;;;;;13.07;6.65;;;-1.70;99.90;;;;;;4976212;28;20370;-79
2023/11/30 05:06:47;;;;;;;12.45;6.60;;;-1.70;99.90;;;;;;4976237;28;20472;-79
2023/11/30 05:09:12;;;;;;;12.10;7.28;;;-1.70;99.90;;;;;;4975886;28;20022;-79
2023/11/30 05:11:38;;;;;;;12.75;7.47;;;-1.60;99.90;;;;;;4976240;28;20081;-79
2023/11/30 05:14:04;;;;;;;16.02;7.68;;;-1.60;99.90;;;;;;4976819;28;20092;-79
2023/11/30 05:16:29;;;;;;;14.52;8.05;;;-1.60;99.90;;;;;;4979126;28;20054;-79
2023/11/30 05:18:55;;;;;;;18.17;7.55;;;-1.70;99.90;;;;;;4979471;28;20033;-79
2023/11/30 05:21:21;;;;;;;13.90;6.78;;;-1.60;99.90;;;;;;4979263;28;20037;-79
2023/11/30 05:23:46;;;;;;;15.32;7.93;;;-1.60;99.90;;;;;;4993646;28;20075;-79
2023/11/30 05:26:12;;;;;;;13.48;7.10;;;-1.50;99.90;;;;;;4959762;28;20073;-80
2023/11/30 05:28:38;;;;;;;21.75;8.85;;;-1.40;99.90;;;;;;4959877;28;20023;-81
2023/11/30 05:31:04;;;;;;;13.20;7.88;;;0.10;99.90;;;;;;4960140;28;20488;-79
2023/11/30 05:33:31;;;;;;;16.00;7.93;;;-0.20;99.90;;;;;;4979243;28;20038;-78
2023/11/30 05:35:57;;;;;;;15.85;7.75;;;-0.50;99.90;;;;;;4963735;28;20039;-78
2023/11/30 05:38:22;;;;;;;15.07;7.05;;;-0.70;99.90;;;;;;4967941;28;20030;-78
2023/11/30 05:40:48;;;;;;;17.38;7.70;;;-0.90;99.90;;;;;;4973171;28;20060;-79
2023/11/30 05:43:13;;;;;;;13.15;6.85;;;-0.90;99.90;;;;;;4979001;28;20022;-79
2023/11/30 05:45:39;;;;;;;17.10;8.18;;;-1.10;99.90;;;;;;4996014;28;20022;-80
2023/11/30 05:48:05;;;;;;;14.98;8.10;;;-1.20;99.90;;;;;;4996144;28;20023;-79
2023/11/30 05:50:31;;;;;;;17.23;6.43;;;-1.20;99.90;;;;;;4978706;28;20027;-79
2023/11/30 05:52:56;;;;;;;14.68;8.10;;;-1.20;99.90;;;;;;4979278;28;20084;-79
2023/11/30 05:55:22;;;;;;;13.88;7.50;;;-1.30;99.90;;;;;;4983297;28;20026;-81
2023/11/30 05:57:48;;;;;;;11.70;7.22;;;-1.20;99.90;;;;;;4981863;28;20030;-81
2023/11/30 06:00:14;;;;;;;18.20;7.28;;;-1.20;99.90;;;;;;4980957;28;20026;-80
2023/11/30 06:02:40;;;;;;;10.77;6.78;;;-1.10;99.90;;;;;;4997137;28;20479;-80
2023/11/30 06:05:06;;;;;;;16.40;7.55;;;-1.10;99.90;;;;;;4997397;28;20026;-80
2023/11/30 06:07:32;;;;;;;15.18;8.13;;;-1.10;99.90;;;;;;4996351;28;20018;-79
2023/11/30 06:09:57;;;;;;;16.40;8.82;;;-1.10;99.90;;;;;;4996259;28;20053;-81
2023/11/30 06:12:24;;;;;;;15.15;8.02;;;-1.10;99.90;;;;;;4978990;28;20034;-79
2023/11/30 06:14:49;;;;;;;18.25;8.57;;;-1.10;99.90;;;;;;4994905;28;20078;-78
2023/11/30 06:17:17;;;;;;;16.63;7.80;;;-1.10;99.90;;;;;;4978299;28;20559;-77
2023/11/30 06:19:42;;;;;;;19.70;7.90;;;-1.10;99.90;;;;;;4979204;28;20038;-79
2023/11/30 06:22:08;;;;;;;13.52;7.60;;;-1.00;99.90;;;;;;4979066;28;20595;-80
2023/11/30 06:24:34;;;;;;;15.27;8.38;;;-0.80;99.90;;;;;;4978325;28;20424;-79
2023/11/30 06:27:01;;;;;;;16.88;8.70;;;-0.90;99.90;;;;;;4994511;28;20022;-79
2023/11/30 06:29:27;;;;;;;18.73;9.20;;;0.40;99.90;;;;;;4978068;28;20073;-80
2023/11/30 06:31:53;;;;;;;26.33;14.20;;;-1.00;99.90;;;;;;4995471;28;20022;-80
2023/11/30 06:34:19;;;;;;;20.00;10.05;;;-1.00;99.90;;;;;;4995276;28;20022;-79
2023/11/30 06:36:45;;;;;;;15.48;8.88;;;-0.90;99.90;;;;;;4993788;28;20117;-79
2023/11/30 06:39:10;;;;;;;18.23;9.38;;;-0.90;99.90;;;;;;4978000;28;20029;-78
2023/11/30 06:41:36;;;;;;;17.15;8.73;;;-0.90;99.90;;;;;;4995643;28;20030;-79
2023/11/30 06:44:02;;;;;;;18.38;9.32;;;-0.90;99.90;;;;;;4978457;28;20023;-80
2023/11/30 06:46:27;;;;;;;11.73;7.38;;;-0.90;99.90;;;;;;4995062;28;20485;-80
2023/11/30 06:48:53;;;;;;;16.50;7.65;;;-1.00;99.90;;;;;;4977805;28;20037;-79
2023/11/30 06:51:19;;;;;;;16.73;8.13;;;-0.80;99.90;;;;;;4977780;28;20038;-79
2023/11/30 06:53:44;;;;;;;19.42;9.48;;;-0.80;99.90;;;;;;4977782;28;20382;-79
2023/11/30 06:56:13;;;;;;;19.02;9.05;;;-0.80;99.90;;;;;;4977588;28;20033;-79
2023/11/30 06:58:39;;;;;;;15.55;8.23;;;-0.80;99.90;;;;;;4977974;28;20038;-79
2023/11/30 07:01:09;;;;;;;22.05;9.38;;;-0.70;99.90;;;;;;4979455;28;20567;-80
2023/11/30 07:03:35;;;;;;;18.50;9.48;;;-0.70;99.90;;;;;;4977706;28;20030;-79
2023/11/30 07:06:01;;;;;;;14.98;8.77;;;-0.60;99.90;;;;;;4978771;28;20388;-79
2023/11/30 07:08:27;;;;;;;21.55;11.88;;;-0.70;99.90;;;;;;4977915;28;20060;-78
2023/11/30 07:10:52;;;;;;;28.50;14.52;;;-0.60;99.90;;;;;;4995283;28;20125;-77
2023/11/30 07:13:18;;;;;;;20.35;12.02;;;-0.60;99.90;;;;;;4995658;28;20614;-78
2023/11/30 07:15:44;;;;;;;19.10;9.75;;;-0.90;99.90;;;;;;4995693;28;20036;-79
2023/11/30 07:18:12;;;;;;;17.30;8.23;;;-0.80;99.90;;;;;;4985906;28;20484;-79
2023/11/30 07:20:37;;;;;;;17.42;9.02;;;-0.70;99.90;;;;;;4979457;28;20030;-79
2023/11/30 07:23:04;;;;;;;16.27;9.32;;;-0.60;99.90;;;;;;4980917;28;20109;-81
2023/11/30 07:25:30;;;;;;;22.30;10.35;;;-0.70;99.90;;;;;;4998199;28;20020;-77
2023/11/30 07:27:56;;;;;;;16.58;9.85;;;-0.60;99.90;;;;;;4998804;28;20054;-78
2023/11/30 07:30:22;;;;;;;16.77;8.65;;;-1.00;99.90;;;;;;4981371;28;20472;-77
2023/11/30 07:32:48;;;;;;;16.58;9.38;;;-0.60;99.90;;;;;;4997025;28;20053;-78
2023/11/30 07:35:14;;;;;;;15.10;7.05;;;-0.60;99.90;;;;;;4979229;28;20022;-78
2023/11/30 07:37:42;;;;;;;23.45;10.45;;;0.70;99.90;;;;;;4979222;28;20031;-79
2023/11/30 07:40:08;;;;;;;23.13;11.02;;;1.50;99.90;;;;;;4996344;28;20029;-79
2023/11/30 07:42:34;;;;;;;26.60;13.40;;;0.90;99.90;;;;;;4996213;28;20038;-77
2023/11/30 07:45:01;;;;;;;18.40;9.90;;;1.40;99.90;;;;;;4996506;28;20018;-78
2023/11/30 07:47:27;;;;;;;29.05;14.18;;;1.30;99.90;;;;;;4997133;28;20416;-77
2023/11/30 07:49:54;;;;;;;43.88;20.85;;;0.90;99.90;;;;;;4996501;28;20037;-77
2023/11/30 07:52:19;;;;;;;26.23;14.05;;;0.80;99.90;;;;;;4996173;28;20026;-79
2023/11/30 07:54:46;;;;;;;18.83;11.52;;;1.70;99.90;;;;;;4998275;28;20095;-76
2023/11/30 07:57:11;;;;;;;15.73;9.98;;;1.00;99.90;;;;;;4995794;28;20141;-76
2023/11/30 07:59:37;;;;;;;19.55;10.73;;;0.80;99.90;;;;;;4980397;28;20476;-78
2023/11/30 08:02:04;;;;;;;19.50;10.32;;;0.60;99.90;;;;;;4996106;28;20030;-76
2023/11/30 08:04:30;;;;;;;16.83;9.95;;;0.50;99.90;;;;;;4996070;28;20027;-75
2023/11/30 08:06:55;;;;;;;19.88;9.40;;;0.30;99.90;;;;;;4979149;28;20090;-76
2023/11/30 08:09:21;;;;;;;20.73;10.70;;;0.30;99.90;;;;;;4978479;28;20023;-78
2023/11/30 08:11:48;;;;;;;22.92;12.50;;;1.20;99.90;;;;;;4996402;28;20023;-77
2023/11/30 08:14:14;;;;;;;18.17;12.00;;;1.20;99.90;;;;;;4995600;28;20026;-77
2023/11/30 08:16:39;;;;;;;20.48;12.38;;;0.90;99.90;;;;;;4975642;28;20042;-76
2023/11/30 08:19:05;;;;;;;21.35;10.90;;;0.80;99.90;;;;;;4977660;28;20171;-77
2023/11/30 08:21:30;;;;;;;17.50;9.75;;;0.70;99.90;;;;;;4976242;28;20022;-77
2023/11/30 08:23:56;;;;;;;17.98;10.40;;;0.50;99.90;;;;;;4959388;28;20030;-78
2023/11/30 08:26:22;;;;;;;19.60;9.85;;;0.40;99.90;;;;;;4988229;28;20399;-77
2023/11/30 08:28:49;;;;;;;18.95;9.63;;;0.40;99.90;;;;;;4979169;28;20629;-76
2023/11/30 08:31:15;;;;;;;14.23;8.93;;;0.30;99.90;;;;;;4979242;28;20030;-76
2023/11/30 08:33:40;;;;;;;22.15;10.93;;;0.30;99.90;;;;;;4978975;28;20029;-76
2023/11/30 08:36:07;;;;;;;16.83;9.82;;;0.30;99.90;;;;;;4995901;28;20064;-79
2023/11/30 08:38:35;;;;;;;21.48;12.70;;;0.40;99.90;;;;;;4978837;28;20444;-77
2023/11/30 08:41:02;;;;;;;20.92;10.00;;;0.40;99.90;;;;;;4994643;28;20101;-78
2023/11/30 08:43:27;;;;;;;22.17;10.15;;;0.40;99.90;;;;;;4993911;28;20027;-79
2023/11/30 08:45:53;;;;;;;17.88;10.65;;;0.30;99.90;;;;;;4994579;28;20094;-76
2023/11/30 08:48:19;;;;;;;22.83;10.40;;;0.40;99.90;;;;;;4978379;28;20030;-77
2023/11/30 08:50:44;;;;;;;26.20;12.32;;;0.40;99.90;;;;;;4998558;28;20477;-79
2023/11/30 08:53:10;;;;;;;18.15;10.75;;;0.40;99.90;;;;;;4980904;28;20026;-76
2023/11/30 08:55:36;;;;;;;22.80;11.35;;;0.30;99.90;;;;;;4998393;28;20477;-77
2023/11/30 08:58:03;;;;;;;23.73;12.23;;;0.30;99.90;;;;;;4996738;28;20037;-78
2023/11/30 09:00:28;;;;;;;26.70;13.15;;;0.40;99.90;;;;;;4980211;28;20030;-77
2023/11/30 09:02:56;;;;;;;21.67;11.93;;;0.50;99.90;;;;;;4997193;28;20034;-78
2023/11/30 09:05:23;;;;;;;17.98;9.88;;;0.40;99.90;;;;;;4995605;28;20022;-79
2023/11/30 09:07:52;;;;;;;30.63;12.00;;;0.30;99.90;;;;;;4980118;28;20026;-79
2023/11/30 09:10:20;;;;;;;21.35;11.30;;;0.40;99.90;;;;;;4998986;28;20440;-78
2023/11/30 09:12:46;;;;;;;22.00;11.30;;;0.30;99.90;;;;;;4982692;28;20480;-77
2023/11/30 09:15:12;;;;;;;21.52;11.43;;;0.40;99.90;;;;;;4998159;28;20041;-75
2023/11/30 09:17:39;;;;;;;18.35;9.48;;;0.50;99.90;;;;;;4998075;28;20046;-79
2023/11/30 09:20:08;;;;;;;23.67;11.68;;;0.60;99.90;;;;;;4996823;28;20026;-79
2023/11/30 09:22:34;;;;;;;26.65;12.65;;;0.60;99.90;;;;;;4995319;28;20023;-79
2023/11/30 09:24:59;;;;;;;23.52;11.95;;;0.60;99.90;;;;;;4995638;28;20034;-79
2023/11/30 09:27:25;;;;;;;23.75;13.30;;;0.60;99.90;;;;;;4995282;28;20080;-80
2023/11/30 09:29:51;;;;;;;23.00;12.82;;;0.70;99.90;;;;;;4995536;28;20026;-79
2023/11/30 09:32:16;;;;;;;26.70;14.05;;;0.70;99.90;;;;;;4995688;28;20030;-79
2023/11/30 09:34:42;;;;;;;28.33;16.08;;;0.70;99.90;;;;;;4996711;28;20469;-75
2023/11/30 09:37:07;;;;;;;23.58;11.30;;;0.70;99.90;;;;;;4994346;28;20030;-77
2023/11/30 09:39:33;;;;;;;27.73;11.90;;;0.60;99.90;;;;;;4996017;28;20049;-77
2023/11/30 09:42:05;;;;;;;24.58;11.02;;;0.70;99.90;;;;;;4995303;28;20030;-76
2023/11/30 09:44:31;;;;;;;20.75;11.40;;;0.70;99.90;;;;;;4994317;28;20030;-77
2023/11/30 09:46:57;;;;;;;24.00;11.45;;;0.70;99.90;;;;;;4995080;28;20053;-76
2023/11/30 09:49:23;;;;;;;18.02;10.07;;;0.70;99.90;;;;;;4995025;28;20644;-77
2023/11/30 09:51:53;;;;;;;22.98;12.07;;;0.70;99.90;;;;;;4996036;28;20056;-78
2023/11/30 09:54:21;;;;;;;25.92;13.18;;;0.80;99.90;;;;;;4995251;28;20130;-78
2023/11/30 09:56:47;;;;;;;19.42;11.65;;;0.90;99.90;;;;;;4996545;28;20102;-78
2023/11/30 09:59:13;;;;;;;22.05;12.45;;;0.90;99.90;;;;;;4996353;28;20054;-77
2023/11/30 10:01:42;;;;;;;23.90;11.60;;;0.80;99.90;;;;;;4993806;28;20031;-77
2023/11/30 10:04:15;;;;;;;21.17;12.20;;;0.90;99.90;;;;;;4978316;28;20520;-74
2023/11/30 10:06:41;;;;;;;17.67;10.63;;;0.90;99.90;;;;;;4994840;28;20022;-77
2023/11/30 10:09:14;;;;;;;22.08;11.50;;;0.80;99.90;;;;;;4993824;28;20538;-77
2023/11/30 10:11:40;;;;;;;21.42;11.02;;;0.90;99.90;;;;;;4993585;28;20049;-78
2023/11/30 10:14:07;;;;;;;24.52;11.05;;;1.00;99.90;;;;;;4993749;28;20033;-77
2023/11/30 10:16:34;;;;;;;21.25;10.63;;;1.10;99.90;;;;;;4977774;28;20031;-76
2023/11/30 10:19:00;;;;;;;22.17;11.85;;;1.10;99.90;;;;;;4995460;28;20037;-77
2023/11/30 10:21:26;;;;;;;20.95;12.10;;;1.50;99.90;;;;;;5001721;28;20034;-76
2023/11/30 10:23:51;;;;;;;19.23;11.38;;;1.40;99.90;;;;;;4999525;28;20018;-77
2023/11/30 10:26:17;;;;;;;20.13;11.43;;;1.60;99.90;;;;;;4986683;28;20034;-78
2023/11/30 10:28:43;;;;;;;20.27;11.90;;;1.60;99.90;;;;;;5002454;28;20400;-78
2023/11/30 10:31:12;;;;;;;22.23;12.40;;;1.40;99.90;;;;;;4988097;28;20026;-77
2023/11/30 10:33:40;;;;;;;22.48;12.70;;;1.40;99.90;;;;;;4979721;28;20037;-78
2023/11/30 10:36:08;;;;;;;21.88;12.05;;;1.60;99.90;;;;;;4978854;28;20030;-76
2023/11/30 10:38:34;;;;;;;18.95;10.55;;;1.60;99.90;;;;;;4963122;28;20484;-78
2023/11/30 10:41:23;;;;;;;22.13;13.65;;;1.60;99.90;;;;;;4995450;28;20033;-78
2023/11/30 10:43:55;;;;;;;25.83;12.55;;;1.60;99.90;;;;;;4994495;28;20039;-78
2023/11/30 10:46:24;;;;;;;22.60;12.10;;;1.50;99.90;;;;;;4977377;28;20050;-78
2023/11/30 10:48:51;;;;;;;24.52;13.98;;;1.50;99.90;;;;;;4977702;28;20027;-78
2023/11/30 10:51:17;;;;;;;23.88;11.25;;;1.50;99.90;;;;;;4994925;28;20079;-78
2023/11/30 10:53:53;;;;;;;19.65;12.02;;;1.50;99.90;;;;;;4994733;28;20030;-78
2023/11/30 10:56:19;;;;;;;25.33;13.27;;;1.50;99.90;;;;;;4977942;28;20045;-78
2023/11/30 10:58:47;;;;;;;26.50;12.98;;;1.50;99.90;;;;;;4977623;28;20034;-78
2023/11/30 11:01:13;;;;;;;23.92;11.82;;;1.00;99.90;;;;;;4995303;28;20081;-77
2023/11/30 11:03:55;;;;;;;21.67;11.38;;;1.20;99.90;;;;;;4977470;28;20034;-77
2023/11/30 11:06:25;;;;;;;26.13;14.27;;;1.40;99.90;;;;;;4977105;28;20026;-78
2023/11/30 11:09:08;;;;;;;31.25;13.93;;;1.30;99.90;;;;;;4977379;28;20110;-76
2023/11/30 11:11:37;;;;;;;21.42;12.68;;;1.40;99.90;;;;;;4977885;28;20113;-76
2023/11/30 11:14:03;;;;;;;26.38;12.23;;;1.50;99.90;;;;;;4992469;28;20041;-77
2023/11/30 11:16:37;;;;;;;19.80;10.93;;;1.30;99.90;;;;;;4993492;28;20117;-77
2023/11/30 11:19:04;;;;;;;29.02;14.27;;;1.50;99.90;;;;;;4994862;28;20423;-77
2023/11/30 11:21:38;;;;;;;46.83;22.55;;;1.50;99.90;;;;;;4993135;28;20054;-75
2023/11/30 11:24:05;;;;;;;25.75;14.18;;;1.60;99.90;;;;;;4993246;28;20030;-76
2023/11/30 11:26:47;;;;;;;23.42;11.35;;;1.60;99.90;;;;;;4993271;28;20518;-76
2023/11/30 11:29:14;;;;;;;20.98;12.00;;;1.50;99.90;;;;;;4994621;28;20021;-77
2023/11/30 11:31:43;;;;;;;19.23;9.82;;;1.50;99.90;;;;;;4994466;28;20034;-75
2023/11/30 11:34:09;;;;;;;24.13;12.23;;;1.50;99.90;;;;;;4977170;28;20022;-78
2023/11/30 11:36:36;;;;;;;21.80;12.77;;;1.60;99.90;;;;;;4994259;28;20026;-77
2023/11/30 11:39:05;;;;;;;26.60;13.63;;;1.10;99.90;;;;;;4994322;28;20026;-76
2023/11/30 11:41:31;;;;;;;24.63;12.38;;;1.10;99.90;;;;;;4993220;28;20771;-79
2023/11/30 11:43:57;;;;;;;19.10;11.35;;;1.50;99.90;;;;;;4994321;28;20057;-76
2023/11/30 11:46:23;;;;;;;18.08;11.23;;;1.50;99.90;;;;;;4993090;28;20061;-77
2023/11/30 11:48:49;;;;;;;22.60;11.68;;;1.20;99.90;;;;;;4992949;28;20101;-76
2023/11/30 11:51:14;;;;;;;17.30;10.15;;;1.40;99.90;;;;;;4993038;28;20029;-76
2023/11/30 11:53:40;;;;;;;27.17;10.10;;;1.50;99.90;;;;;;4993519;28;20129;-76
2023/11/30 11:56:08;;;;;;;25.65;11.55;;;1.50;99.90;;;;;;4993079;28;20062;-76
2023/11/30 11:58:37;;;;;;;21.45;11.68;;;1.40;99.90;;;;;;4993190;28;20028;-76
2023/11/30 12:01:03;;;;;;;27.13;12.15;;;1.40;99.90;;;;;;4992689;28;20026;-76
2023/11/30 12:03:28;;;;;;;22.13;11.90;;;1.50;99.90;;;;;;4976815;28;20041;-76
2023/11/30 12:05:54;;;;;;;23.02;12.30;;;1.40;99.90;;;;;;4976768;28;20023;-76
2023/11/30 12:08:30;;;;;;;23.75;13.25;;;1.40;99.90;;;;;;4993309;28;20551;-76
2023/11/30 12:10:56;;;;;;;24.20;11.93;;;1.40;99.90;;;;;;4992701;28;20542;-76
2023/11/30 12:13:23;;;;;;;27.23;13.32;;;1.50;99.90;;;;;;4976805;28;20034;-76
2023/11/30 12:15:49;;;;;;;19.63;11.63;;;1.40;99.90;;;;;;4992697;28;20506;-76
2023/11/30 12:18:15;;;;;;;20.10;12.00;;;1.40;99.90;;;;;;4991254;28;20038;-77
2023/11/30 12:20:42;;;;;;;27.45;12.27;;;1.50;99.90;;;;;;4994374;28;20080;-76
2023/11/30 12:23:07;;;;;;;19.73;10.60;;;1.70;99.90;;;;;;4993666;28;20026;-77
2023/11/30 12:25:34;;;;;;;23.75;11.35;;;1.70;99.90;;;;;;4984738;28;20054;-75
2023/11/30 12:27:59;;;;;;;24.00;12.23;;;1.70;99.90;;;;;;4978143;28;20382;-76
2023/11/30 12:30:25;;;;;;;27.63;11.25;;;1.50;99.90;;;;;;4978855;28;20030;-77
2023/11/30 12:32:51;;;;;;;19.98;10.68;;;1.40;99.90;;;;;;4961385;28;20030;-74